sensor_id;sensor_type;location;lat;lon;timestamp;P1;durP1;ratioP1;P2;durP2;ratioP2
58308;SDS011;44117;57.142;24.826;2022-08-03T00:02:15;19.90;;;18.10;;
58308;SDS011;44117;57.142;24.826;2022-08-03T00:04:42;18.35;;;16.63;;
58308;SDS011;44117;57.142;24.826;2022-08-03T00:07:10;16.45;;;14.75;;
58308;SDS011;44117;57.142;24.826;2022-08-03T00:09:37;16.77;;;15.00;;
58308;SDS011;44117;57.142;24.826;2022-08-03T00:12:05;16.85;;;15.07;;
58308;SDS011;44117;57.142;24.826;2022-08-03T00:14:32;15.32;;;13.82;;
58308;SDS011;44117;57.142;24.826;2022-08-03T00:17:00;13.90;;;12.43;;
58308;SDS011;44117;57.142;24.826;2022-08-03T00:19:27;12.57;;;11.38;;
58308;SDS011;44117;57.142;24.826;2022-08-03T00:21:55;12.82;;;10.25;;
58308;SDS011;44117;57.142;24.826;2022-08-03T00:24:22;9.98;;;8.98;;
58308;SDS011;44117;57.142;24.826;2022-08-03T00:26:50;9.35;;;8.45;;
58308;SDS011;44117;57.142;24.826;2022-08-03T00:29:17;12.73;;;9.02;;
58308;SDS011;44117;57.142;24.826;2022-08-03T00:31:45;9.82;;;8.82;;
58308;SDS011;44117;57.142;24.826;2022-08-03T00:34:24;11.35;;;10.25;;
58308;SDS011;44117;57.142;24.826;2022-08-03T00:37:11;13.68;;;10.68;;
58308;SDS011;44117;57.142;24.826;2022-08-03T00:39:39;11.38;;;10.38;;
58308;SDS011;44117;57.142;24.826;2022-08-03T00:42:08;11.75;;;10.55;;
58308;SDS011;44117;57.142;24.826;2022-08-03T00:44:40;12.43;;;10.52;;
58308;SDS011;44117;57.142;24.826;2022-08-03T00:47:08;11.00;;;9.90;;
58308;SDS011;44117;57.142;24.826;2022-08-03T00:49:36;10.60;;;9.25;;
58308;SDS011;44117;57.142;24.826;2022-08-03T00:52:09;9.85;;;8.57;;
58308;SDS011;44117;57.142;24.826;2022-08-03T00:54:39;9.35;;;8.27;;
58308;SDS011;44117;57.142;24.826;2022-08-03T00:57:06;8.63;;;7.82;;
58308;SDS011;44117;57.142;24.826;2022-08-03T00:59:34;8.38;;;7.57;;
58308;SDS011;44117;57.142;24.826;2022-08-03T01:02:03;9.38;;;8.48;;
58308;SDS011;44117;57.142;24.826;2022-08-03T01:04:32;8.85;;;7.97;;
58308;SDS011;44117;57.142;24.826;2022-08-03T01:09:52;8.38;;;7.57;;
58308;SDS011;44117;57.142;24.826;2022-08-03T01:27:50;12.75;;;11.55;;
58308;SDS011;44117;57.142;24.826;2022-08-03T01:30:41;11.23;;;10.23;;
58308;SDS011;44117;57.142;24.826;2022-08-03T01:33:12;11.70;;;10.43;;
58308;SDS011;44117;57.142;24.826;2022-08-03T01:35:49;12.57;;;11.40;;
58308;SDS011;44117;57.142;24.826;2022-08-03T01:38:29;11.38;;;10.38;;
58308;SDS011;44117;57.142;24.826;2022-08-03T01:41:10;24.70;;;11.82;;
58308;SDS011;44117;57.142;24.826;2022-08-03T01:43:41;39.03;;;10.13;;
58308;SDS011;44117;57.142;24.826;2022-08-03T01:46:31;16.75;;;8.82;;
58308;SDS011;44117;57.142;24.826;2022-08-03T01:48:59;30.77;;;10.18;;
58308;SDS011;44117;57.142;24.826;2022-08-03T01:51:35;24.55;;;10.82;;
58308;SDS011;44117;57.142;24.826;2022-08-03T01:54:25;33.92;;;12.45;;
58308;SDS011;44117;57.142;24.826;2022-08-03T01:56:55;46.63;;;16.92;;
58308;SDS011;44117;57.142;24.826;2022-08-03T01:59:25;38.38;;;18.30;;
58308;SDS011;44117;57.142;24.826;2022-08-03T02:01:54;29.55;;;18.98;;
58308;SDS011;44117;57.142;24.826;2022-08-03T02:04:43;24.70;;;19.60;;
58308;SDS011;44117;57.142;24.826;2022-08-03T02:07:13;34.42;;;25.92;;
58308;SDS011;44117;57.142;24.826;2022-08-03T02:09:43;28.05;;;25.15;;
58308;SDS011;44117;57.142;24.826;2022-08-03T02:12:12;26.10;;;23.30;;
58308;SDS011;44117;57.142;24.826;2022-08-03T02:14:42;27.15;;;22.38;;
58308;SDS011;44117;57.142;24.826;2022-08-03T02:17:11;23.98;;;21.25;;
58308;SDS011;44117;57.142;24.826;2022-08-03T02:19:41;23.42;;;20.67;;
58308;SDS011;44117;57.142;24.826;2022-08-03T02:22:10;25.20;;;22.65;;
58308;SDS011;44117;57.142;24.826;2022-08-03T02:24:39;24.90;;;22.25;;
58308;SDS011;44117;57.142;24.826;2022-08-03T02:27:32;22.83;;;19.55;;
58308;SDS011;44117;57.142;24.826;2022-08-03T02:30:08;23.02;;;20.63;;
58308;SDS011;44117;57.142;24.826;2022-08-03T02:32:38;21.20;;;19.05;;
58308;SDS011;44117;57.142;24.826;2022-08-03T02:35:12;25.08;;;22.42;;
58308;SDS011;44117;57.142;24.826;2022-08-03T02:37:41;29.20;;;26.20;;
58308;SDS011;44117;57.142;24.826;2022-08-03T02:40:15;33.60;;;30.15;;
58308;SDS011;44117;57.142;24.826;2022-08-03T02:42:45;30.45;;;27.42;;
58308;SDS011;44117;57.142;24.826;2022-08-03T02:45:14;37.65;;;33.95;;
58308;SDS011;44117;57.142;24.826;2022-08-03T02:47:44;33.58;;;30.30;;
58308;SDS011;44117;57.142;24.826;2022-08-03T02:50:20;34.13;;;30.92;;
58308;SDS011;44117;57.142;24.826;2022-08-03T02:52:49;31.50;;;28.63;;
58308;SDS011;44117;57.142;24.826;2022-08-03T02:55:19;33.13;;;29.98;;
58308;SDS011;44117;57.142;24.826;2022-08-03T02:57:48;31.02;;;28.05;;
58308;SDS011;44117;57.142;24.826;2022-08-03T03:00:17;27.10;;;24.60;;
58308;SDS011;44117;57.142;24.826;2022-08-03T03:02:55;30.15;;;27.30;;
58308;SDS011;44117;57.142;24.826;2022-08-03T03:05:25;28.67;;;25.95;;
58308;SDS011;44117;57.142;24.826;2022-08-03T03:08:14;30.10;;;27.40;;
58308;SDS011;44117;57.142;24.826;2022-08-03T03:10:51;29.42;;;26.73;;
58308;SDS011;44117;57.142;24.826;2022-08-03T03:13:21;26.58;;;24.13;;
58308;SDS011;44117;57.142;24.826;2022-08-03T03:15:49;27.00;;;24.48;;
58308;SDS011;44117;57.142;24.826;2022-08-03T03:18:19;23.00;;;20.90;;
58308;SDS011;44117;57.142;24.826;2022-08-03T03:20:48;20.58;;;18.75;;
58308;SDS011;44117;57.142;24.826;2022-08-03T03:23:19;19.15;;;17.50;;
58308;SDS011;44117;57.142;24.826;2022-08-03T03:25:48;17.58;;;15.95;;
58308;SDS011;44117;57.142;24.826;2022-08-03T03:28:17;19.63;;;17.58;;
58308;SDS011;44117;57.142;24.826;2022-08-03T03:30:45;18.83;;;17.02;;
58308;SDS011;44117;57.142;24.826;2022-08-03T03:35:46;14.88;;;13.48;;
58308;SDS011;44117;57.142;24.826;2022-08-03T03:38:14;16.73;;;15.13;;
58308;SDS011;44117;57.142;24.826;2022-08-03T03:40:41;15.85;;;14.45;;
58308;SDS011;44117;57.142;24.826;2022-08-03T03:43:10;17.60;;;15.82;;
58308;SDS011;44117;57.142;24.826;2022-08-03T03:45:41;18.90;;;17.20;;
58308;SDS011;44117;57.142;24.826;2022-08-03T03:48:08;17.77;;;16.13;;
58308;SDS011;44117;57.142;24.826;2022-08-03T03:50:36;16.58;;;14.82;;
58308;SDS011;44117;57.142;24.826;2022-08-03T03:53:11;16.60;;;15.00;;
58308;SDS011;44117;57.142;24.826;2022-08-03T03:55:41;16.40;;;14.77;;
58308;SDS011;44117;57.142;24.826;2022-08-03T03:58:28;16.08;;;14.38;;
58308;SDS011;44117;57.142;24.826;2022-08-03T04:00:57;17.17;;;15.48;;
58308;SDS011;44117;57.142;24.826;2022-08-03T04:03:24;16.63;;;13.63;;
58308;SDS011;44117;57.142;24.826;2022-08-03T04:05:52;17.42;;;14.23;;
58308;SDS011;44117;57.142;24.826;2022-08-03T04:08:38;14.98;;;13.40;;
58308;SDS011;44117;57.142;24.826;2022-08-03T04:11:27;14.50;;;12.13;;
58308;SDS011;44117;57.142;24.826;2022-08-03T04:14:05;13.25;;;11.95;;
58308;SDS011;44117;57.142;24.826;2022-08-03T04:16:40;11.55;;;10.45;;
58308;SDS011;44117;57.142;24.826;2022-08-03T04:19:24;12.70;;;11.50;;
58308;SDS011;44117;57.142;24.826;2022-08-03T04:21:53;13.80;;;12.45;;
58308;SDS011;44117;57.142;24.826;2022-08-03T04:24:26;12.60;;;11.40;;
58308;SDS011;44117;57.142;24.826;2022-08-03T04:27:05;12.35;;;11.15;;
58308;SDS011;44117;57.142;24.826;2022-08-03T04:29:36;11.77;;;10.50;;
58308;SDS011;44117;57.142;24.826;2022-08-03T04:32:14;13.93;;;11.52;;
58308;SDS011;44117;57.142;24.826;2022-08-03T04:34:43;14.27;;;10.57;;
58308;SDS011;44117;57.142;24.826;2022-08-03T04:37:12;12.27;;;9.68;;
58308;SDS011;44117;57.142;24.826;2022-08-03T04:39:44;9.95;;;8.70;;
58308;SDS011;44117;57.142;24.826;2022-08-03T04:42:15;10.70;;;9.60;;
58308;SDS011;44117;57.142;24.826;2022-08-03T04:44:44;12.95;;;8.95;;
58308;SDS011;44117;57.142;24.826;2022-08-03T04:47:14;11.02;;;9.82;;
58308;SDS011;44117;57.142;24.826;2022-08-03T04:49:42;10.75;;;9.65;;
58308;SDS011;44117;57.142;24.826;2022-08-03T04:52:09;10.43;;;9.38;;
58308;SDS011;44117;57.142;24.826;2022-08-03T04:54:40;11.23;;;9.35;;
58308;SDS011;44117;57.142;24.826;2022-08-03T04:57:16;11.50;;;8.57;;
58308;SDS011;44117;57.142;24.826;2022-08-03T04:59:51;11.27;;;8.37;;
58308;SDS011;44117;57.142;24.826;2022-08-03T05:02:27;10.85;;;9.25;;
58308;SDS011;44117;57.142;24.826;2022-08-03T05:04:54;12.50;;;8.80;;
58308;SDS011;44117;57.142;24.826;2022-08-03T05:07:22;11.13;;;8.40;;
58308;SDS011;44117;57.142;24.826;2022-08-03T05:09:50;11.73;;;8.43;;
58308;SDS011;44117;57.142;24.826;2022-08-03T05:12:28;12.75;;;8.20;;
58308;SDS011;44117;57.142;24.826;2022-08-03T05:14:59;13.10;;;6.72;;
58308;SDS011;44117;57.142;24.826;2022-08-03T05:17:27;10.75;;;8.00;;
58308;SDS011;44117;57.142;24.826;2022-08-03T05:19:55;9.32;;;7.25;;
58308;SDS011;44117;57.142;24.826;2022-08-03T05:22:22;10.48;;;7.43;;
58308;SDS011;44117;57.142;24.826;2022-08-03T05:24:50;7.70;;;6.38;;
58308;SDS011;44117;57.142;24.826;2022-08-03T05:27:17;10.13;;;6.93;;
58308;SDS011;44117;57.142;24.826;2022-08-03T05:29:45;9.80;;;6.05;;
58308;SDS011;44117;57.142;24.826;2022-08-03T05:32:14;7.45;;;5.63;;
58308;SDS011;44117;57.142;24.826;2022-08-03T05:34:43;10.95;;;6.40;;
58308;SDS011;44117;57.142;24.826;2022-08-03T05:37:10;8.95;;;5.93;;
58308;SDS011;44117;57.142;24.826;2022-08-03T05:39:38;10.38;;;6.03;;
58308;SDS011;44117;57.142;24.826;2022-08-03T05:42:05;8.70;;;6.10;;
58308;SDS011;44117;57.142;24.826;2022-08-03T05:44:33;11.38;;;6.25;;
58308;SDS011;44117;57.142;24.826;2022-08-03T05:47:04;11.50;;;6.13;;
58308;SDS011;44117;57.142;24.826;2022-08-03T05:49:31;11.32;;;6.35;;
58308;SDS011;44117;57.142;24.826;2022-08-03T05:51:59;10.23;;;5.97;;
58308;SDS011;44117;57.142;24.826;2022-08-03T05:54:41;9.60;;;5.88;;
58308;SDS011;44117;57.142;24.826;2022-08-03T05:57:23;9.40;;;6.05;;
58308;SDS011;44117;57.142;24.826;2022-08-03T05:59:51;8.93;;;6.03;;
58308;SDS011;44117;57.142;24.826;2022-08-03T06:02:24;10.15;;;5.47;;
58308;SDS011;44117;57.142;24.826;2022-08-03T06:04:52;6.60;;;5.30;;
58308;SDS011;44117;57.142;24.826;2022-08-03T06:07:20;8.27;;;5.35;;
58308;SDS011;44117;57.142;24.826;2022-08-03T06:09:47;11.20;;;5.50;;
58308;SDS011;44117;57.142;24.826;2022-08-03T06:12:35;10.90;;;5.45;;
58308;SDS011;44117;57.142;24.826;2022-08-03T06:15:03;9.40;;;5.45;;
58308;SDS011;44117;57.142;24.826;2022-08-03T06:17:33;8.38;;;5.43;;
58308;SDS011;44117;57.142;24.826;2022-08-03T06:20:03;11.10;;;5.55;;
58308;SDS011;44117;57.142;24.826;2022-08-03T06:22:31;7.15;;;4.57;;
58308;SDS011;44117;57.142;24.826;2022-08-03T06:24:59;7.43;;;4.40;;
58308;SDS011;44117;57.142;24.826;2022-08-03T06:27:31;8.93;;;4.30;;
58308;SDS011;44117;57.142;24.826;2022-08-03T06:30:03;8.20;;;3.47;;
58308;SDS011;44117;57.142;24.826;2022-08-03T06:32:36;6.53;;;3.70;;
58308;SDS011;44117;57.142;24.826;2022-08-03T06:35:05;6.05;;;3.05;;
58308;SDS011;44117;57.142;24.826;2022-08-03T06:37:46;10.50;;;3.28;;
58308;SDS011;44117;57.142;24.826;2022-08-03T06:40:16;6.15;;;3.40;;
58308;SDS011;44117;57.142;24.826;2022-08-03T06:42:49;8.35;;;3.63;;
58308;SDS011;44117;57.142;24.826;2022-08-03T06:45:17;5.68;;;3.25;;
58308;SDS011;44117;57.142;24.826;2022-08-03T06:47:44;6.30;;;3.47;;
58308;SDS011;44117;57.142;24.826;2022-08-03T06:50:12;5.55;;;3.13;;
58308;SDS011;44117;57.142;24.826;2022-08-03T06:52:44;8.30;;;3.65;;
58308;SDS011;44117;57.142;24.826;2022-08-03T06:55:11;9.00;;;4.20;;
58308;SDS011;44117;57.142;24.826;2022-08-03T06:57:39;7.93;;;3.67;;
58308;SDS011;44117;57.142;24.826;2022-08-03T07:00:06;8.90;;;4.32;;
58308;SDS011;44117;57.142;24.826;2022-08-03T07:02:38;6.38;;;4.05;;
58308;SDS011;44117;57.142;24.826;2022-08-03T07:05:05;7.72;;;4.20;;
58308;SDS011;44117;57.142;24.826;2022-08-03T07:07:34;6.85;;;4.10;;
58308;SDS011;44117;57.142;24.826;2022-08-03T07:10:02;5.50;;;3.88;;
58308;SDS011;44117;57.142;24.826;2022-08-03T07:12:31;9.07;;;4.25;;
58308;SDS011;44117;57.142;24.826;2022-08-03T07:14:59;8.93;;;4.07;;
58308;SDS011;44117;57.142;24.826;2022-08-03T07:17:29;5.45;;;3.90;;
58308;SDS011;44117;57.142;24.826;2022-08-03T07:19:58;7.53;;;3.85;;
58308;SDS011;44117;57.142;24.826;2022-08-03T07:22:26;7.15;;;3.40;;
58308;SDS011;44117;57.142;24.826;2022-08-03T07:24:54;9.45;;;3.45;;
58308;SDS011;44117;57.142;24.826;2022-08-03T07:27:22;5.22;;;3.08;;
58308;SDS011;44117;57.142;24.826;2022-08-03T07:29:49;7.00;;;3.55;;
58308;SDS011;44117;57.142;24.826;2022-08-03T07:32:17;6.63;;;3.30;;
58308;SDS011;44117;57.142;24.826;2022-08-03T07:34:44;6.18;;;3.30;;
58308;SDS011;44117;57.142;24.826;2022-08-03T07:37:12;6.50;;;2.88;;
58308;SDS011;44117;57.142;24.826;2022-08-03T07:39:39;6.15;;;3.05;;
58308;SDS011;44117;57.142;24.826;2022-08-03T07:42:06;6.63;;;3.00;;
58308;SDS011;44117;57.142;24.826;2022-08-03T07:44:34;7.07;;;2.88;;
58308;SDS011;44117;57.142;24.826;2022-08-03T07:47:01;5.90;;;3.05;;
58308;SDS011;44117;57.142;24.826;2022-08-03T07:49:29;5.13;;;2.60;;
58308;SDS011;44117;57.142;24.826;2022-08-03T07:51:56;4.53;;;2.92;;
58308;SDS011;44117;57.142;24.826;2022-08-03T07:55:02;4.78;;;3.20;;
58308;SDS011;44117;57.142;24.826;2022-08-03T07:57:32;6.38;;;3.10;;
58308;SDS011;44117;57.142;24.826;2022-08-03T08:00:05;6.47;;;3.45;;
58308;SDS011;44117;57.142;24.826;2022-08-03T08:02:38;6.15;;;3.28;;
58308;SDS011;44117;57.142;24.826;2022-08-03T08:05:06;7.43;;;3.50;;
58308;SDS011;44117;57.142;24.826;2022-08-03T08:07:34;9.02;;;3.90;;
58308;SDS011;44117;57.142;24.826;2022-08-03T08:10:03;6.28;;;3.65;;
58308;SDS011;44117;57.142;24.826;2022-08-03T08:12:31;7.72;;;3.70;;
58308;SDS011;44117;57.142;24.826;2022-08-03T08:14:59;7.10;;;3.70;;
58308;SDS011;44117;57.142;24.826;2022-08-03T08:17:26;8.30;;;3.78;;
58308;SDS011;44117;57.142;24.826;2022-08-03T08:19:54;5.93;;;3.60;;
58308;SDS011;44117;57.142;24.826;2022-08-03T08:22:23;6.32;;;3.30;;
58308;SDS011;44117;57.142;24.826;2022-08-03T08:24:56;6.78;;;3.97;;
58308;SDS011;44117;57.142;24.826;2022-08-03T08:27:26;8.10;;;3.88;;
58308;SDS011;44117;57.142;24.826;2022-08-03T08:30:14;7.35;;;3.35;;
58308;SDS011;44117;57.142;24.826;2022-08-03T08:32:45;8.90;;;3.35;;
58308;SDS011;44117;57.142;24.826;2022-08-03T08:35:13;6.63;;;2.60;;
58308;SDS011;44117;57.142;24.826;2022-08-03T08:37:40;8.77;;;3.10;;
58308;SDS011;44117;57.142;24.826;2022-08-03T08:40:16;6.38;;;2.63;;
58308;SDS011;44117;57.142;24.826;2022-08-03T08:42:47;7.05;;;2.83;;
58308;SDS011;44117;57.142;24.826;2022-08-03T08:45:24;5.78;;;2.45;;
58308;SDS011;44117;57.142;24.826;2022-08-03T08:47:52;4.38;;;2.58;;
58308;SDS011;44117;57.142;24.826;2022-08-03T08:50:28;7.72;;;3.28;;
58308;SDS011;44117;57.142;24.826;2022-08-03T08:52:56;5.90;;;2.63;;
58308;SDS011;44117;57.142;24.826;2022-08-03T08:55:27;5.25;;;2.13;;
58308;SDS011;44117;57.142;24.826;2022-08-03T08:58:15;6.03;;;2.78;;
58308;SDS011;44117;57.142;24.826;2022-08-03T09:00:46;5.60;;;2.17;;
58308;SDS011;44117;57.142;24.826;2022-08-03T09:03:14;6.15;;;1.80;;
58308;SDS011;44117;57.142;24.826;2022-08-03T09:05:56;4.35;;;1.77;;
58308;SDS011;44117;57.142;24.826;2022-08-03T09:08:26;2.97;;;1.55;;
58308;SDS011;44117;57.142;24.826;2022-08-03T09:10:57;3.78;;;1.67;;
58308;SDS011;44117;57.142;24.826;2022-08-03T09:13:25;3.78;;;1.85;;
58308;SDS011;44117;57.142;24.826;2022-08-03T09:16:09;4.50;;;1.50;;
58308;SDS011;44117;57.142;24.826;2022-08-03T09:18:45;7.38;;;1.60;;
58308;SDS011;44117;57.142;24.826;2022-08-03T09:21:15;6.03;;;1.60;;
58308;SDS011;44117;57.142;24.826;2022-08-03T09:24:01;2.30;;;1.23;;
58308;SDS011;44117;57.142;24.826;2022-08-03T09:26:36;4.38;;;1.55;;
58308;SDS011;44117;57.142;24.826;2022-08-03T09:29:07;4.95;;;1.40;;
58308;SDS011;44117;57.142;24.826;2022-08-03T09:34:13;5.55;;;1.67;;
58308;SDS011;44117;57.142;24.826;2022-08-03T09:36:46;4.85;;;1.30;;
58308;SDS011;44117;57.142;24.826;2022-08-03T09:39:18;3.58;;;1.45;;
58308;SDS011;44117;57.142;24.826;2022-08-03T09:42:08;4.30;;;1.42;;
58308;SDS011;44117;57.142;24.826;2022-08-03T09:44:41;1.27;;;1.00;;
58308;SDS011;44117;57.142;24.826;2022-08-03T09:47:10;3.22;;;1.20;;
58308;SDS011;44117;57.142;24.826;2022-08-03T09:49:55;2.53;;;1.10;;
58308;SDS011;44117;57.142;24.826;2022-08-03T09:52:31;2.58;;;1.20;;
58308;SDS011;44117;57.142;24.826;2022-08-03T09:55:15;2.75;;;1.33;;
58308;SDS011;44117;57.142;24.826;2022-08-03T09:58:06;3.80;;;1.40;;
58308;SDS011;44117;57.142;24.826;2022-08-03T10:03:20;4.30;;;1.30;;
58308;SDS011;44117;57.142;24.826;2022-08-03T10:05:48;2.55;;;1.15;;
58308;SDS011;44117;57.142;24.826;2022-08-03T10:08:20;2.88;;;1.15;;
58308;SDS011;44117;57.142;24.826;2022-08-03T10:10:48;2.80;;;1.13;;
58308;SDS011;44117;57.142;24.826;2022-08-03T10:13:20;3.50;;;1.10;;
58308;SDS011;44117;57.142;24.826;2022-08-03T10:15:48;4.38;;;1.20;;
58308;SDS011;44117;57.142;24.826;2022-08-03T10:18:36;2.88;;;1.20;;
58308;SDS011;44117;57.142;24.826;2022-08-03T10:21:05;2.42;;;1.20;;
58308;SDS011;44117;57.142;24.826;2022-08-03T10:23:36;3.75;;;1.45;;
58308;SDS011;44117;57.142;24.826;2022-08-03T10:26:06;2.00;;;0.90;;
58308;SDS011;44117;57.142;24.826;2022-08-03T10:28:38;2.25;;;1.08;;
58308;SDS011;44117;57.142;24.826;2022-08-03T10:31:10;2.80;;;0.95;;
58308;SDS011;44117;57.142;24.826;2022-08-03T10:33:43;6.40;;;1.05;;
58308;SDS011;44117;57.142;24.826;2022-08-03T10:36:22;2.03;;;0.88;;
58308;SDS011;44117;57.142;24.826;2022-08-03T10:38:53;2.15;;;0.90;;
58308;SDS011;44117;57.142;24.826;2022-08-03T10:41:24;1.98;;;0.98;;
58308;SDS011;44117;57.142;24.826;2022-08-03T10:44:10;1.55;;;1.10;;
58308;SDS011;44117;57.142;24.826;2022-08-03T10:46:42;2.30;;;1.20;;
58308;SDS011;44117;57.142;24.826;2022-08-03T10:49:11;3.63;;;1.10;;
58308;SDS011;44117;57.142;24.826;2022-08-03T10:51:41;4.22;;;1.00;;
58308;SDS011;44117;57.142;24.826;2022-08-03T11:00:15;2.13;;;1.30;;
58308;SDS011;44117;57.142;24.826;2022-08-03T11:10:56;2.05;;;1.00;;
58308;SDS011;44117;57.142;24.826;2022-08-03T11:13:26;1.70;;;1.15;;
58308;SDS011;44117;57.142;24.826;2022-08-03T11:15:57;1.52;;;0.98;;
58308;SDS011;44117;57.142;24.826;2022-08-03T11:18:31;2.47;;;1.20;;
58308;SDS011;44117;57.142;24.826;2022-08-03T11:20:58;1.92;;;1.05;;
58308;SDS011;44117;57.142;24.826;2022-08-03T11:23:39;2.53;;;1.30;;
58308;SDS011;44117;57.142;24.826;2022-08-03T11:26:30;1.58;;;0.90;;
58308;SDS011;44117;57.142;24.826;2022-08-03T11:31:55;1.85;;;1.05;;
58308;SDS011;44117;57.142;24.826;2022-08-03T11:34:22;2.85;;;0.95;;
58308;SDS011;44117;57.142;24.826;2022-08-03T11:39:55;1.80;;;0.90;;
58308;SDS011;44117;57.142;24.826;2022-08-03T11:44:50;2.72;;;1.10;;
58308;SDS011;44117;57.142;24.826;2022-08-03T11:47:26;3.30;;;1.13;;
58308;SDS011;44117;57.142;24.826;2022-08-03T11:49:55;2.33;;;1.10;;
58308;SDS011;44117;57.142;24.826;2022-08-03T11:52:26;3.13;;;1.00;;
58308;SDS011;44117;57.142;24.826;2022-08-03T11:54:59;3.47;;;1.20;;
58308;SDS011;44117;57.142;24.826;2022-08-03T11:57:28;2.03;;;1.00;;
58308;SDS011;44117;57.142;24.826;2022-08-03T12:00:37;2.97;;;1.17;;
58308;SDS011;44117;57.142;24.826;2022-08-03T12:03:07;1.90;;;1.15;;
58308;SDS011;44117;57.142;24.826;2022-08-03T12:05:38;1.95;;;0.98;;
58308;SDS011;44117;57.142;24.826;2022-08-03T12:08:28;2.40;;;1.27;;
58308;SDS011;44117;57.142;24.826;2022-08-03T12:10:58;4.68;;;1.30;;
58308;SDS011;44117;57.142;24.826;2022-08-03T12:13:40;3.97;;;1.45;;
58308;SDS011;44117;57.142;24.826;2022-08-03T12:16:29;2.80;;;1.10;;
58308;SDS011;44117;57.142;24.826;2022-08-03T12:18:57;2.47;;;1.25;;
58308;SDS011;44117;57.142;24.826;2022-08-03T12:21:27;2.63;;;1.17;;
58308;SDS011;44117;57.142;24.826;2022-08-03T12:23:59;3.92;;;1.10;;
58308;SDS011;44117;57.142;24.826;2022-08-03T12:26:28;4.00;;;1.30;;
58308;SDS011;44117;57.142;24.826;2022-08-03T12:28:56;3.10;;;1.25;;
58308;SDS011;44117;57.142;24.826;2022-08-03T12:31:24;3.85;;;1.30;;
58308;SDS011;44117;57.142;24.826;2022-08-03T12:36:24;5.47;;;1.38;;
58308;SDS011;44117;57.142;24.826;2022-08-03T12:38:53;4.72;;;1.70;;
58308;SDS011;44117;57.142;24.826;2022-08-03T12:41:29;2.03;;;1.10;;
58308;SDS011;44117;57.142;24.826;2022-08-03T12:44:00;4.10;;;1.60;;
58308;SDS011;44117;57.142;24.826;2022-08-03T12:46:30;2.47;;;1.50;;
58308;SDS011;44117;57.142;24.826;2022-08-03T12:49:04;4.35;;;1.35;;
58308;SDS011;44117;57.142;24.826;2022-08-03T12:51:34;2.40;;;1.40;;
58308;SDS011;44117;57.142;24.826;2022-08-03T12:54:23;3.17;;;1.30;;
58308;SDS011;44117;57.142;24.826;2022-08-03T12:57:02;1.40;;;1.05;;
58308;SDS011;44117;57.142;24.826;2022-08-03T12:59:44;1.90;;;1.05;;
58308;SDS011;44117;57.142;24.826;2022-08-03T13:02:20;3.00;;;0.98;;
58308;SDS011;44117;57.142;24.826;2022-08-03T13:04:50;3.55;;;1.30;;
58308;SDS011;44117;57.142;24.826;2022-08-03T13:07:19;2.83;;;1.48;;
58308;SDS011;44117;57.142;24.826;2022-08-03T13:09:48;2.92;;;1.17;;
58308;SDS011;44117;57.142;24.826;2022-08-03T13:12:22;3.33;;;1.25;;
58308;SDS011;44117;57.142;24.826;2022-08-03T13:17:22;3.30;;;1.40;;
58308;SDS011;44117;57.142;24.826;2022-08-03T13:19:50;3.42;;;1.20;;
58308;SDS011;44117;57.142;24.826;2022-08-03T13:22:19;2.97;;;1.70;;
58308;SDS011;44117;57.142;24.826;2022-08-03T13:24:49;5.60;;;1.60;;
58308;SDS011;44117;57.142;24.826;2022-08-03T13:27:18;2.60;;;1.05;;
58308;SDS011;44117;57.142;24.826;2022-08-03T13:30:06;3.63;;;1.45;;
58308;SDS011;44117;57.142;24.826;2022-08-03T13:32:34;3.53;;;1.25;;
58308;SDS011;44117;57.142;24.826;2022-08-03T13:35:02;2.33;;;1.30;;
58308;SDS011;44117;57.142;24.826;2022-08-03T13:37:30;1.73;;;0.93;;
58308;SDS011;44117;57.142;24.826;2022-08-03T13:39:58;4.00;;;1.10;;
58308;SDS011;44117;57.142;24.826;2022-08-03T13:42:29;4.45;;;1.30;;
58308;SDS011;44117;57.142;24.826;2022-08-03T13:44:58;5.05;;;1.00;;
58308;SDS011;44117;57.142;24.826;2022-08-03T13:47:26;3.95;;;1.02;;
58308;SDS011;44117;57.142;24.826;2022-08-03T13:49:54;3.35;;;1.00;;
58308;SDS011;44117;57.142;24.826;2022-08-03T13:52:34;3.00;;;0.93;;
58308;SDS011;44117;57.142;24.826;2022-08-03T13:55:03;5.30;;;1.48;;
58308;SDS011;44117;57.142;24.826;2022-08-03T13:57:32;6.15;;;1.80;;
58308;SDS011;44117;57.142;24.826;2022-08-03T14:00:21;4.65;;;1.50;;
58308;SDS011;44117;57.142;24.826;2022-08-03T14:02:55;1.67;;;1.00;;
58308;SDS011;44117;57.142;24.826;2022-08-03T14:05:32;2.08;;;1.15;;
58308;SDS011;44117;57.142;24.826;2022-08-03T14:08:01;2.70;;;1.10;;
58308;SDS011;44117;57.142;24.826;2022-08-03T14:10:31;2.85;;;1.05;;
58308;SDS011;44117;57.142;24.826;2022-08-03T14:13:00;1.55;;;1.00;;
58308;SDS011;44117;57.142;24.826;2022-08-03T14:15:28;2.83;;;1.15;;
58308;SDS011;44117;57.142;24.826;2022-08-03T14:17:55;1.50;;;1.10;;
58308;SDS011;44117;57.142;24.826;2022-08-03T14:20:24;5.75;;;1.65;;
58308;SDS011;44117;57.142;24.826;2022-08-03T14:23:11;3.78;;;1.17;;
58308;SDS011;44117;57.142;24.826;2022-08-03T14:25:39;2.47;;;1.25;;
58308;SDS011;44117;57.142;24.826;2022-08-03T14:28:16;4.65;;;1.48;;
58308;SDS011;44117;57.142;24.826;2022-08-03T14:30:49;6.43;;;1.40;;
58308;SDS011;44117;57.142;24.826;2022-08-03T14:33:17;6.00;;;1.10;;
58308;SDS011;44117;57.142;24.826;2022-08-03T14:35:45;4.40;;;1.20;;
58308;SDS011;44117;57.142;24.826;2022-08-03T14:38:13;3.08;;;1.15;;
58308;SDS011;44117;57.142;24.826;2022-08-03T14:40:41;2.75;;;1.10;;
58308;SDS011;44117;57.142;24.826;2022-08-03T14:43:09;5.40;;;1.40;;
58308;SDS011;44117;57.142;24.826;2022-08-03T14:45:37;4.18;;;1.40;;
58308;SDS011;44117;57.142;24.826;2022-08-03T14:48:05;2.58;;;1.20;;
58308;SDS011;44117;57.142;24.826;2022-08-03T14:50:52;3.25;;;1.17;;
58308;SDS011;44117;57.142;24.826;2022-08-03T14:53:21;5.07;;;1.90;;
58308;SDS011;44117;57.142;24.826;2022-08-03T14:55:49;3.80;;;1.20;;
58308;SDS011;44117;57.142;24.826;2022-08-03T14:58:18;4.10;;;1.30;;
58308;SDS011;44117;57.142;24.826;2022-08-03T15:00:48;5.55;;;1.45;;
58308;SDS011;44117;57.142;24.826;2022-08-03T15:03:17;5.32;;;1.50;;
58308;SDS011;44117;57.142;24.826;2022-08-03T15:05:51;4.03;;;1.63;;
58308;SDS011;44117;57.142;24.826;2022-08-03T15:08:21;4.25;;;1.25;;
58308;SDS011;44117;57.142;24.826;2022-08-03T15:10:50;3.42;;;1.80;;
58308;SDS011;44117;57.142;24.826;2022-08-03T15:13:18;2.53;;;1.02;;
58308;SDS011;44117;57.142;24.826;2022-08-03T15:15:46;3.00;;;1.20;;
58308;SDS011;44117;57.142;24.826;2022-08-03T15:18:14;3.97;;;1.00;;
58308;SDS011;44117;57.142;24.826;2022-08-03T15:20:41;85.63;;;58.42;;
58308;SDS011;44117;57.142;24.826;2022-08-03T15:23:12;6.95;;;2.45;;
58308;SDS011;44117;57.142;24.826;2022-08-03T15:25:41;11.45;;;4.82;;
58308;SDS011;44117;57.142;24.826;2022-08-03T15:28:30;4.95;;;1.40;;
58308;SDS011;44117;57.142;24.826;2022-08-03T15:30:58;29.77;;;18.80;;
58308;SDS011;44117;57.142;24.826;2022-08-03T15:33:26;63.33;;;41.38;;
58308;SDS011;44117;57.142;24.826;2022-08-03T15:35:53;45.35;;;29.08;;
58308;SDS011;44117;57.142;24.826;2022-08-03T15:38:22;51.08;;;35.30;;
58308;SDS011;44117;57.142;24.826;2022-08-03T15:40:51;10.10;;;5.43;;
58308;SDS011;44117;57.142;24.826;2022-08-03T15:43:22;8.75;;;4.85;;
58308;SDS011;44117;57.142;24.826;2022-08-03T15:45:50;4.15;;;1.75;;
58308;SDS011;44117;57.142;24.826;2022-08-03T15:48:38;2.00;;;0.80;;